createdAt,value
2018-05-31T00:01:29.432Z,10.57
2018-05-31T00:03:57.710Z,10.23
2018-05-31T00:06:25.959Z,9.50
2018-05-31T00:08:54.226Z,9.50
2018-05-31T00:11:22.497Z,9.87
2018-05-31T00:13:50.744Z,9.57
2018-05-31T00:16:19.799Z,8.73
2018-05-31T00:18:48.071Z,10.47
2018-05-31T00:21:16.344Z,9.70
2018-05-31T00:23:44.621Z,12.00
2018-05-31T00:26:12.884Z,10.20
2018-05-31T00:28:41.154Z,9.60
2018-05-31T00:31:09.424Z,10.27
2018-05-31T00:33:37.719Z,10.53
2018-05-31T00:36:05.968Z,9.40
2018-05-31T00:38:34.225Z,9.33
2018-05-31T00:41:03.265Z,10.40
2018-05-31T00:43:31.549Z,11.17
2018-05-31T00:45:59.826Z,10.63
2018-05-31T00:48:28.094Z,10.30
2018-05-31T00:50:56.361Z,9.50
2018-05-31T00:53:24.650Z,9.37
2018-05-31T00:56:04.844Z,11.20
2018-05-31T00:58:34.094Z,10.20
2018-05-31T01:01:02.353Z,10.97
2018-05-31T01:03:30.609Z,10.10
2018-05-31T01:05:58.883Z,9.97
2018-05-31T01:08:27.146Z,8.97
2018-05-31T01:10:56.181Z,11.20
2018-05-31T01:13:24.440Z,10.73
2018-05-31T01:15:52.706Z,10.87
2018-05-31T01:18:20.973Z,11.67
2018-05-31T01:20:50.040Z,10.37
2018-05-31T01:23:18.314Z,11.53
2018-05-31T01:25:46.636Z,10.90
2018-05-31T01:28:14.914Z,11.30
2018-05-31T01:30:43.182Z,10.00
2018-05-31T01:33:12.202Z,10.63
2018-05-31T01:35:40.481Z,11.43
2018-05-31T01:38:20.745Z,12.30
2018-05-31T01:40:48.996Z,10.23
2018-05-31T01:43:17.252Z,10.50
2018-05-31T01:45:46.306Z,12.30
2018-05-31T01:48:14.587Z,10.77
2018-05-31T01:50:42.833Z,11.97
2018-05-31T01:53:11.112Z,11.23
2018-05-31T01:55:39.369Z,11.80
2018-05-31T01:58:07.632Z,10.90
2018-05-31T02:00:36.655Z,11.13
2018-05-31T02:03:04.916Z,11.03
2018-05-31T02:05:33.176Z,11.43
2018-05-31T02:08:02.233Z,10.97
2018-05-31T02:10:30.517Z,11.27
2018-05-31T02:12:58.781Z,11.83
2018-05-31T02:15:27.059Z,12.10
2018-05-31T02:17:55.331Z,12.43
2018-05-31T02:20:23.634Z,11.60
2018-05-31T02:22:52.659Z,11.50
2018-05-31T02:25:20.927Z,13.77
2018-05-31T02:27:49.237Z,12.33
2018-05-31T02:30:17.483Z,13.07
2018-05-31T02:32:45.754Z,11.93
2018-05-31T02:35:14.788Z,14.93
2018-05-31T02:37:43.072Z,13.73
2018-05-31T02:40:11.335Z,13.37
2018-05-31T02:42:39.584Z,13.70
2018-05-31T02:45:07.875Z,14.30
2018-05-31T02:47:36.129Z,14.13
2018-05-31T02:50:04.433Z,13.60
2018-05-31T02:52:32.693Z,14.37
2018-05-31T02:55:00.969Z,14.87
2018-05-31T02:57:29.231Z,14.20
2018-05-31T02:59:58.266Z,15.07
2018-05-31T03:02:26.525Z,13.93
2018-05-31T03:04:54.779Z,13.10
2018-05-31T03:07:23.062Z,13.67
2018-05-31T03:09:52.119Z,12.77
2018-05-31T03:12:20.364Z,13.77
2018-05-31T03:14:48.671Z,13.90
2018-05-31T03:17:16.945Z,13.80
2018-05-31T03:19:45.218Z,15.00
2018-05-31T03:22:13.495Z,14.53
2018-05-31T03:24:41.756Z,16.93
2018-05-31T03:27:10.065Z,15.93
2018-05-31T03:29:39.162Z,16.87
2018-05-31T03:32:07.409Z,15.00
2018-05-31T03:34:35.683Z,16.37
2018-05-31T03:37:03.959Z,16.00
2018-05-31T03:39:32.213Z,16.43
2018-05-31T03:42:00.481Z,16.13
2018-05-31T03:44:28.742Z,15.70
2018-05-31T03:46:57.009Z,15.23
2018-05-31T03:49:26.080Z,15.07
2018-05-31T03:51:54.338Z,15.13
2018-05-31T03:54:22.630Z,13.07
2018-05-31T03:56:50.896Z,12.47
2018-05-31T03:59:19.168Z,13.97
2018-05-31T04:01:48.370Z,14.67
2018-05-31T04:04:16.656Z,13.63
2018-05-31T04:06:44.925Z,15.43
2018-05-31T04:09:14.714Z,15.40
2018-05-31T04:11:42.969Z,14.10
2018-05-31T04:14:11.244Z,13.10
2018-05-31T04:16:39.511Z,13.27
2018-05-31T04:19:07.785Z,12.13
2018-05-31T04:21:36.034Z,13.33
2018-05-31T04:24:05.087Z,14.60
2018-05-31T04:26:33.353Z,11.17
2018-05-31T04:29:01.616Z,12.60
2018-05-31T04:31:29.957Z,12.73
2018-05-31T04:33:58.990Z,13.17
2018-05-31T04:36:27.253Z,10.87
2018-05-31T04:38:55.508Z,12.17
2018-05-31T04:41:24.540Z,13.13
2018-05-31T04:43:52.804Z,14.07
2018-05-31T04:46:21.058Z,14.40
2018-05-31T04:48:50.070Z,14.57
2018-05-31T04:51:18.328Z,14.20
2018-05-31T04:53:46.578Z,13.40
2018-05-31T04:56:15.623Z,14.73
2018-05-31T04:58:43.885Z,14.43
2018-05-31T05:01:12.161Z,16.53
2018-05-31T05:03:40.425Z,14.70
2018-05-31T05:06:09.443Z,16.90
2018-05-31T05:08:37.719Z,13.57
2018-05-31T05:11:05.978Z,14.47
2018-05-31T05:13:34.257Z,14.43
2018-05-31T05:16:02.501Z,13.57
2018-05-31T05:18:31.532Z,12.77
2018-05-31T05:20:59.786Z,13.93
2018-05-31T05:23:28.084Z,14.10
2018-05-31T05:25:56.347Z,13.50
2018-05-31T05:28:24.598Z,13.33
2018-05-31T05:30:53.613Z,13.90
2018-05-31T05:33:22.644Z,13.00
2018-05-31T05:35:50.918Z,12.90
2018-05-31T05:38:19.182Z,12.07
2018-05-31T05:40:47.464Z,12.50
2018-05-31T05:43:15.719Z,12.00
2018-05-31T05:45:43.976Z,13.00
2018-05-31T05:48:12.999Z,13.50
2018-05-31T05:50:41.270Z,13.80
2018-05-31T05:53:09.531Z,13.20
2018-05-31T05:55:38.563Z,12.13
2018-05-31T05:58:06.816Z,12.97
2018-05-31T06:00:35.085Z,13.50
2018-05-31T06:03:03.349Z,10.97
2018-05-31T06:05:31.619Z,12.50
2018-05-31T06:08:00.643Z,13.20
2018-05-31T06:10:28.915Z,12.60
2018-05-31T06:12:57.214Z,12.00
2018-05-31T06:15:25.464Z,11.97
2018-05-31T06:17:53.741Z,12.30
2018-05-31T06:20:22.044Z,12.20
2018-05-31T06:22:50.307Z,10.40
2018-05-31T06:25:18.595Z,10.87
2018-05-31T06:27:46.849Z,10.77
2018-05-31T06:30:15.109Z,10.97
2018-05-31T06:32:43.370Z,11.70
2018-05-31T06:35:12.400Z,11.23
2018-05-31T06:37:40.670Z,10.30
2018-05-31T06:40:08.921Z,11.50
2018-05-31T06:42:38.013Z,10.97
2018-05-31T06:45:07.022Z,11.00
2018-05-31T06:47:35.281Z,12.03
2018-05-31T06:50:04.302Z,11.30
2018-05-31T06:52:32.553Z,11.87
2018-05-31T06:55:01.582Z,12.80
2018-05-31T06:57:29.829Z,11.87
2018-05-31T06:59:58.853Z,11.57
2018-05-31T07:02:27.127Z,12.03
2018-05-31T07:04:55.389Z,13.13
2018-05-31T07:07:23.672Z,10.13
2018-05-31T07:09:51.958Z,12.63
2018-05-31T07:12:20.219Z,11.30
2018-05-31T07:14:48.480Z,11.80
2018-05-31T07:17:17.516Z,11.83
2018-05-31T07:19:45.776Z,11.70
2018-05-31T07:22:14.042Z,11.43
2018-05-31T07:24:42.319Z,10.83
2018-05-31T07:27:10.605Z,11.67
2018-05-31T07:29:38.843Z,10.83
2018-05-31T07:32:07.880Z,10.83
2018-05-31T07:34:36.131Z,11.00
2018-05-31T07:37:04.405Z,10.73
2018-05-31T07:39:32.663Z,11.30
2018-05-31T07:42:01.684Z,11.73
2018-05-31T07:44:29.967Z,11.40
2018-05-31T07:46:58.225Z,10.30
2018-05-31T07:49:26.498Z,11.90
2018-05-31T07:51:54.778Z,10.60
2018-05-31T07:54:23.035Z,10.77
2018-05-31T07:56:52.082Z,11.90
2018-05-31T07:59:20.350Z,11.70
2018-05-31T08:01:48.613Z,11.93
2018-05-31T08:04:16.911Z,12.53
2018-05-31T08:06:45.164Z,12.40
2018-05-31T08:09:13.424Z,11.33
2018-05-31T08:11:41.693Z,12.60
2018-05-31T08:14:09.964Z,12.13
2018-05-31T08:16:39.027Z,10.30
2018-05-31T08:19:07.281Z,11.50
2018-05-31T08:21:35.531Z,10.73
2018-05-31T08:24:03.789Z,11.10
2018-05-31T08:26:32.067Z,11.20
2018-05-31T08:29:01.180Z,11.50
2018-05-31T08:31:29.557Z,10.50
2018-05-31T08:33:57.748Z,11.33
2018-05-31T08:36:26.002Z,10.00
2018-05-31T08:38:54.306Z,11.40
2018-05-31T08:41:22.550Z,10.30
2018-05-31T08:43:51.588Z,11.37
2018-05-31T08:46:19.845Z,12.90
2018-05-31T08:48:48.094Z,10.70
2018-05-31T08:51:16.381Z,10.70
2018-05-31T08:53:44.639Z,10.50
2018-05-31T08:56:12.891Z,10.03
2018-05-31T08:58:41.920Z,10.60
2018-05-31T09:01:10.170Z,10.60
2018-05-31T09:03:38.464Z,12.67
2018-05-31T09:06:06.740Z,10.80
2018-05-31T09:08:35.030Z,13.57
2018-05-31T09:11:03.272Z,11.73
2018-05-31T09:13:32.301Z,12.30
2018-05-31T09:16:00.566Z,10.40
2018-05-31T09:18:28.826Z,12.13
2018-05-31T09:20:57.076Z,11.67
2018-05-31T09:23:25.340Z,11.17
2018-05-31T09:25:53.609Z,11.90
2018-05-31T09:28:21.943Z,11.00
2018-05-31T09:30:50.202Z,11.50
2018-05-31T09:33:18.461Z,10.60
2018-05-31T09:35:47.485Z,11.87
2018-05-31T09:38:15.751Z,11.80
2018-05-31T09:40:44.017Z,11.70
2018-05-31T09:43:13.043Z,10.73
2018-05-31T09:45:41.308Z,11.40
2018-05-31T09:48:09.573Z,11.63
2018-05-31T09:50:37.853Z,11.23
2018-05-31T09:53:06.131Z,11.60
2018-05-31T09:55:34.516Z,9.73
2018-05-31T09:58:02.777Z,10.17
2018-05-31T10:00:36.644Z,10.60
2018-05-31T10:03:05.079Z,11.17
2018-05-31T10:05:33.331Z,10.30
2018-05-31T10:08:01.592Z,9.70
2018-05-31T10:10:30.645Z,9.27
2018-05-31T10:12:58.908Z,7.40
2018-05-31T10:15:27.159Z,8.93
2018-05-31T10:17:55.452Z,7.53
2018-05-31T10:20:24.568Z,8.43
2018-05-31T10:22:54.619Z,9.43
2018-05-31T10:25:24.404Z,7.97
2018-05-31T10:27:53.427Z,8.70
2018-05-31T10:30:22.438Z,7.90
2018-05-31T10:32:50.702Z,7.90
2018-05-31T10:35:19.790Z,6.53
2018-05-31T10:37:48.945Z,8.17
2018-05-31T10:40:17.190Z,8.40
2018-05-31T10:42:45.437Z,7.80
2018-05-31T10:45:14.460Z,7.87
2018-05-31T10:47:42.711Z,6.90
2018-05-31T10:50:11.733Z,7.87
2018-05-31T10:52:39.991Z,8.60
2018-05-31T10:55:08.290Z,8.80
2018-05-31T10:57:36.562Z,8.37
2018-05-31T11:00:05.716Z,8.70
2018-05-31T11:02:34.045Z,9.73
2018-05-31T11:05:02.289Z,8.67
2018-05-31T11:07:30.587Z,9.03
2018-05-31T11:09:58.852Z,10.37
2018-05-31T11:12:27.122Z,10.53
2018-05-31T11:14:55.413Z,10.37
2018-05-31T11:17:24.333Z,10.67
2018-05-31T11:19:52.610Z,10.40
2018-05-31T11:22:20.884Z,10.00
2018-05-31T11:24:49.140Z,10.43
2018-05-31T11:27:17.422Z,11.03
2018-05-31T11:29:45.674Z,9.60
2018-05-31T11:32:13.935Z,10.83
2018-05-31T11:34:42.236Z,10.00
2018-05-31T11:37:10.490Z,9.83
2018-05-31T11:39:38.750Z,8.37
2018-05-31T11:42:07.774Z,9.40
2018-05-31T11:44:36.036Z,8.40
2018-05-31T11:47:05.051Z,8.70
2018-05-31T11:49:33.505Z,10.13
2018-05-31T11:52:01.762Z,9.30
2018-05-31T11:54:30.799Z,10.20
2018-05-31T11:56:59.051Z,9.60
2018-05-31T11:59:27.297Z,9.70
2018-05-31T12:01:55.557Z,10.00
2018-05-31T12:04:24.763Z,9.37
2018-05-31T12:06:53.034Z,9.50
2018-05-31T12:09:21.277Z,8.80
2018-05-31T12:11:49.546Z,9.10
2018-05-31T12:14:17.798Z,8.00
2018-05-31T12:16:47.111Z,8.87
2018-05-31T12:19:15.372Z,7.23
2018-05-31T12:21:44.399Z,8.20
2018-05-31T12:24:12.646Z,8.40
2018-05-31T12:26:40.915Z,8.60
2018-05-31T12:29:09.921Z,8.23
2018-05-31T12:31:38.205Z,8.17
2018-05-31T12:34:06.474Z,8.20
2018-05-31T12:36:34.742Z,7.50
2018-05-31T12:39:03.007Z,7.27
2018-05-31T12:41:32.033Z,8.10
2018-05-31T12:44:00.288Z,7.80
2018-05-31T12:46:28.541Z,8.87
2018-05-31T12:48:57.560Z,9.20
2018-05-31T12:51:25.866Z,10.10
2018-05-31T12:53:54.105Z,9.87
2018-05-31T12:56:22.381Z,9.23
2018-05-31T12:58:50.644Z,9.77
2018-05-31T13:01:19.692Z,10.33
2018-05-31T13:03:48.834Z,10.07
2018-05-31T13:06:17.898Z,10.27
2018-05-31T13:08:46.210Z,9.73
2018-05-31T13:11:15.727Z,9.57
2018-05-31T13:13:43.988Z,9.70
2018-05-31T13:16:13.005Z,8.80
2018-05-31T13:18:41.262Z,9.20
2018-05-31T13:21:09.510Z,9.63
2018-05-31T13:23:37.780Z,10.60
2018-05-31T13:26:06.045Z,9.30
2018-05-31T13:28:34.292Z,6.83
2018-05-31T13:31:02.567Z,7.80
2018-05-31T13:33:30.820Z,7.40
2018-05-31T13:35:59.085Z,6.90
2018-05-31T13:38:28.084Z,7.23
2018-05-31T13:40:56.344Z,8.10
2018-05-31T13:43:25.364Z,8.70
2018-05-31T13:45:53.618Z,8.00
2018-05-31T13:48:22.644Z,7.13
2018-05-31T13:50:50.903Z,7.43
2018-05-31T13:53:19.180Z,7.40
2018-05-31T13:55:48.225Z,8.33
2018-05-31T13:58:16.482Z,7.70
2018-05-31T14:00:44.747Z,6.27
2018-05-31T14:03:13.005Z,7.60
2018-05-31T14:05:41.240Z,6.20
2018-05-31T14:08:09.480Z,6.10
2018-05-31T14:10:37.756Z,5.77
2018-05-31T14:13:05.994Z,5.57
2018-05-31T14:15:35.019Z,5.97
2018-05-31T14:18:03.264Z,7.73
2018-05-31T14:20:31.543Z,7.47
2018-05-31T14:23:00.553Z,7.70
2018-05-31T14:25:28.811Z,7.30
2018-05-31T14:27:57.844Z,8.60
2018-05-31T14:30:26.099Z,6.87
2018-05-31T14:32:54.365Z,7.67
2018-05-31T14:35:22.627Z,8.93
2018-05-31T14:37:51.663Z,7.37
2018-05-31T14:40:19.932Z,7.90
2018-05-31T14:42:48.191Z,7.93
2018-05-31T14:45:16.475Z,8.50
2018-05-31T14:47:44.729Z,9.10
2018-05-31T14:50:12.975Z,6.03
2018-05-31T14:52:41.204Z,6.47
2018-05-31T14:55:09.457Z,5.97
2018-05-31T14:57:37.730Z,5.90
2018-05-31T15:00:06.756Z,7.10
2018-05-31T15:02:35.032Z,7.20
2018-05-31T15:05:03.287Z,7.10
2018-05-31T15:07:31.546Z,5.93
2018-05-31T15:10:00.558Z,6.50
2018-05-31T15:12:28.804Z,6.17
2018-05-31T15:14:57.821Z,5.60
2018-05-31T15:17:26.085Z,6.17
2018-05-31T15:19:54.417Z,6.07
2018-05-31T15:22:22.700Z,6.20
2018-05-31T15:24:51.724Z,6.17
2018-05-31T15:27:20.748Z,6.37
2018-05-31T15:29:48.993Z,6.13
2018-05-31T15:32:17.257Z,7.03
2018-05-31T15:34:45.505Z,6.80
2018-05-31T15:37:13.774Z,7.50
2018-05-31T15:39:42.025Z,7.03
2018-05-31T15:42:10.306Z,7.20
2018-05-31T15:44:38.575Z,7.33
2018-05-31T15:47:06.820Z,7.20
2018-05-31T15:49:35.858Z,6.57
2018-05-31T15:52:04.127Z,6.47
2018-05-31T15:54:32.441Z,7.60
2018-05-31T15:57:00.712Z,6.80
2018-05-31T15:59:28.967Z,7.03
2018-05-31T16:01:57.193Z,6.83
2018-05-31T16:04:27.145Z,8.30
2018-05-31T16:06:55.386Z,7.77
2018-05-31T16:09:29.555Z,8.03
2018-05-31T16:11:57.792Z,7.90
2018-05-31T16:14:26.051Z,7.60
2018-05-31T16:16:55.063Z,7.27
2018-05-31T16:19:24.520Z,7.60
2018-05-31T16:21:54.347Z,7.40
2018-05-31T16:24:23.406Z,7.60
2018-05-31T16:26:51.657Z,7.23
2018-05-31T16:29:19.926Z,7.03
2018-05-31T16:31:48.219Z,6.73
2018-05-31T16:34:16.468Z,6.53
2018-05-31T16:36:44.799Z,6.70
2018-05-31T16:39:13.052Z,7.30
2018-05-31T16:41:44.048Z,7.77
2018-05-31T16:44:13.874Z,7.00
2018-05-31T16:46:44.701Z,7.27
2018-05-31T16:49:13.886Z,6.90
2018-05-31T16:51:42.902Z,9.73
2018-05-31T16:54:11.962Z,7.50
2018-05-31T16:56:42.770Z,6.70
2018-05-31T16:59:11.007Z,6.80
2018-05-31T17:01:39.283Z,6.63
2018-05-31T17:04:08.141Z,6.60
2018-05-31T17:06:38.913Z,5.87
2018-05-31T17:09:07.303Z,5.80
2018-05-31T17:11:35.563Z,6.60
2018-05-31T17:14:05.953Z,6.47
2018-05-31T17:16:34.211Z,6.10
2018-05-31T17:19:03.909Z,6.00
2018-05-31T17:21:32.973Z,6.97
2018-05-31T17:24:01.226Z,5.90
2018-05-31T17:26:30.958Z,5.67
2018-05-31T17:28:59.237Z,7.23
2018-05-31T17:31:27.496Z,6.03
2018-05-31T17:33:55.751Z,6.70
2018-05-31T17:36:24.804Z,5.80
2018-05-31T17:38:53.699Z,5.40
2018-05-31T17:41:21.990Z,7.20
2018-05-31T17:43:50.252Z,7.20
2018-05-31T17:46:18.520Z,5.83
2018-05-31T17:48:47.080Z,6.30
2018-05-31T17:51:15.328Z,6.83
2018-05-31T17:53:44.394Z,6.67
2018-05-31T17:56:12.680Z,6.10
2018-05-31T17:58:40.929Z,7.20
2018-05-31T18:01:09.210Z,6.83
2018-05-31T18:03:37.995Z,6.10
2018-05-31T18:06:06.288Z,6.00
2018-05-31T18:08:34.568Z,6.93
2018-05-31T18:11:02.822Z,6.20
2018-05-31T18:13:31.079Z,6.33
2018-05-31T18:15:59.312Z,6.90
2018-05-31T18:18:28.324Z,6.90
2018-05-31T18:20:56.581Z,11.70
2018-05-31T18:23:25.612Z,7.90
2018-05-31T18:25:53.863Z,6.67
2018-05-31T18:28:22.887Z,6.00
2018-05-31T18:30:51.121Z,7.40
2018-05-31T18:33:20.146Z,6.67
2018-05-31T18:35:48.422Z,7.17
2018-05-31T18:38:16.673Z,7.23
2018-05-31T18:40:45.707Z,7.40
2018-05-31T18:43:13.985Z,7.23
2018-05-31T18:45:42.241Z,6.10
2018-05-31T18:48:10.475Z,6.30
2018-05-31T18:50:38.720Z,6.30
2018-05-31T18:53:06.970Z,6.60
2018-05-31T18:55:35.217Z,7.57
2018-05-31T18:58:04.263Z,10.57
2018-05-31T19:00:32.508Z,7.20
2018-05-31T19:03:00.759Z,7.80
2018-05-31T19:05:29.792Z,7.13
2018-05-31T19:07:58.106Z,7.60
2018-05-31T19:10:26.321Z,8.00
2018-05-31T19:13:00.506Z,6.97
2018-05-31T19:15:28.781Z,7.20
2018-05-31T19:17:56.996Z,6.60
2018-05-31T19:20:25.332Z,6.73
2018-05-31T19:22:53.587Z,6.53
2018-05-31T19:25:21.846Z,6.73
2018-05-31T19:27:50.124Z,6.20
2018-05-31T19:30:24.100Z,7.40
2018-05-31T19:32:52.526Z,8.27
2018-05-31T19:35:27.313Z,8.80
2018-05-31T19:37:55.837Z,5.90
2018-05-31T19:40:24.102Z,7.43
2018-05-31T19:42:58.321Z,8.40
2018-05-31T19:45:26.574Z,8.70
2018-05-31T19:47:54.817Z,8.87
2018-05-31T19:50:23.862Z,7.10
2018-05-31T19:52:58.119Z,7.23
2018-05-31T19:55:27.126Z,7.73
2018-05-31T19:58:01.403Z,7.93
2018-05-31T20:00:36.838Z,9.10
2018-05-31T20:03:10.848Z,8.00
2018-05-31T20:05:39.094Z,7.40
2018-05-31T20:08:07.342Z,7.20
2018-05-31T20:10:36.352Z,6.83
2018-05-31T20:13:04.648Z,6.83
2018-05-31T20:15:32.892Z,7.00
2018-05-31T20:18:01.221Z,6.90
2018-05-31T20:20:29.493Z,7.97
2018-05-31T20:22:57.745Z,7.60
2018-05-31T20:25:26.068Z,8.00
2018-05-31T20:27:54.325Z,7.17
2018-05-31T20:30:22.599Z,7.07
2018-05-31T20:32:51.793Z,7.60
2018-05-31T20:35:20.059Z,7.30
2018-05-31T20:37:48.315Z,8.37
2018-05-31T20:40:17.535Z,7.30
2018-05-31T20:42:45.827Z,8.47
2018-05-31T20:45:14.157Z,8.03
2018-05-31T20:47:43.011Z,8.60
2018-05-31T20:50:11.349Z,8.00
2018-05-31T20:52:39.616Z,9.30
2018-05-31T20:55:07.919Z,8.70
2018-05-31T20:57:36.177Z,7.60
2018-05-31T21:00:04.447Z,8.53
2018-05-31T21:02:32.716Z,8.70
2018-05-31T21:05:01.017Z,8.40
2018-05-31T21:07:29.292Z,7.90
2018-05-31T21:09:57.542Z,8.80
2018-05-31T21:12:25.847Z,8.00
2018-05-31T21:14:54.160Z,7.60
2018-05-31T21:17:23.186Z,8.57
2018-05-31T21:19:51.464Z,7.43
2018-05-31T21:22:19.732Z,8.07
2018-05-31T21:24:48.003Z,8.37
2018-05-31T21:27:16.293Z,8.47
2018-05-31T21:29:44.537Z,8.00
2018-05-31T21:32:13.561Z,8.70
2018-05-31T21:34:41.871Z,8.33
2018-05-31T21:37:10.131Z,8.37
2018-05-31T21:39:38.387Z,8.03
2018-05-31T21:42:06.668Z,8.70
2018-05-31T21:44:34.912Z,8.30
2018-05-31T21:47:03.968Z,8.90
2018-05-31T21:49:32.214Z,8.73
2018-05-31T21:52:00.497Z,9.20
2018-05-31T21:54:28.785Z,8.67
2018-05-31T21:56:57.126Z,8.70
2018-05-31T21:59:26.187Z,7.67
2018-05-31T22:01:54.476Z,9.13
2018-05-31T22:04:23.519Z,8.50
2018-05-31T22:06:51.750Z,9.43
2018-05-31T22:09:20.774Z,9.90
2018-05-31T22:11:49.039Z,9.90
2018-05-31T22:14:17.356Z,9.27
2018-05-31T22:16:45.624Z,9.03
2018-05-31T22:19:13.925Z,9.17
2018-05-31T22:21:42.187Z,9.30
2018-05-31T22:24:10.474Z,10.57
2018-05-31T22:26:39.009Z,10.47
2018-05-31T22:29:07.295Z,10.57
2018-05-31T22:31:35.568Z,10.60
2018-05-31T22:34:03.878Z,11.03
2018-05-31T22:36:32.274Z,9.70
2018-05-31T22:39:00.527Z,11.27
2018-05-31T22:41:28.785Z,12.17
2018-05-31T22:43:57.104Z,10.97
2018-05-31T22:46:25.342Z,11.33
2018-05-31T22:48:53.607Z,12.53
2018-05-31T22:51:21.881Z,11.40
2018-05-31T22:53:50.185Z,11.70
2018-05-31T22:56:18.440Z,11.40
2018-05-31T22:58:46.750Z,11.97
2018-05-31T23:01:15.067Z,12.83
2018-05-31T23:03:43.336Z,12.20
2018-05-31T23:06:11.627Z,11.10
2018-05-31T23:08:42.749Z,12.50
2018-05-31T23:11:11.031Z,10.70
2018-05-31T23:13:40.109Z,11.80
2018-05-31T23:16:08.349Z,11.40
2018-05-31T23:18:36.628Z,11.47
2018-05-31T23:21:04.970Z,12.70
2018-05-31T23:23:33.250Z,11.90
2018-05-31T23:26:01.550Z,11.97
2018-05-31T23:28:29.816Z,12.50
2018-05-31T23:30:58.069Z,11.97
2018-05-31T23:33:26.386Z,12.77
2018-05-31T23:35:54.628Z,13.40
2018-05-31T23:38:22.903Z,11.63
2018-05-31T23:40:51.156Z,12.47
2018-05-31T23:43:20.171Z,11.83
2018-05-31T23:45:48.459Z,11.20
2018-05-31T23:48:16.724Z,11.67
2018-05-31T23:50:45.019Z,13.87
2018-05-31T23:53:13.280Z,11.30
2018-05-31T23:55:41.535Z,12.33
2018-05-31T23:58:09.789Z,12.30
